createdAt,value
2019-05-13T00:01:07.436Z,102700.00
2019-05-13T00:03:37.154Z,102702.00
2019-05-13T00:06:06.841Z,102707.00
2019-05-13T00:08:36.573Z,102707.00
2019-05-13T00:11:06.626Z,102700.00
2019-05-13T00:13:36.312Z,102705.00
2019-05-13T00:16:06.179Z,102711.00
2019-05-13T00:18:35.895Z,102704.00
2019-05-13T00:21:05.692Z,102708.00
2019-05-13T00:23:35.502Z,102709.00
2019-05-13T00:26:05.559Z,102709.00
2019-05-13T00:28:35.376Z,102709.00
2019-05-13T00:31:05.199Z,102717.00
2019-05-13T00:33:35.013Z,102707.00
2019-05-13T00:36:04.804Z,102705.00
2019-05-13T00:38:34.486Z,102712.00
2019-05-13T00:41:04.218Z,102695.00
2019-05-13T00:43:34.119Z,102711.00
2019-05-13T00:46:04.156Z,102713.00
2019-05-13T00:48:34.084Z,102709.00
2019-05-13T00:51:04.106Z,102712.00
2019-05-13T00:53:35.337Z,102709.00
2019-05-13T00:56:05.330Z,102707.00
2019-05-13T00:58:35.048Z,102703.00
2019-05-13T01:01:04.776Z,102708.00
2019-05-13T01:03:34.587Z,102713.00
2019-05-13T01:06:04.468Z,102715.00
2019-05-13T01:08:34.254Z,102721.00
2019-05-13T01:11:04.447Z,102709.00
2019-05-13T01:13:34.416Z,102712.00
2019-05-13T01:16:04.208Z,102715.00
2019-05-13T01:18:53.808Z,102697.00
2019-05-13T01:21:24.046Z,102717.00
2019-05-13T01:23:54.376Z,102708.00
2019-05-13T01:26:24.274Z,102715.00
2019-05-13T01:28:54.077Z,102714.00
2019-05-13T01:31:43.583Z,102713.00
2019-05-13T01:34:14.242Z,102712.00
2019-05-13T01:36:44.788Z,102717.00
2019-05-13T01:39:14.584Z,102717.00
2019-05-13T01:41:44.347Z,102713.00
2019-05-13T01:44:14.154Z,102717.00
2019-05-13T01:46:43.959Z,102723.00
2019-05-13T01:49:13.872Z,102725.00
2019-05-13T01:51:44.104Z,102719.00
2019-05-13T01:54:14.429Z,102727.00
2019-05-13T01:56:44.318Z,102719.00
2019-05-13T01:59:15.146Z,102726.00
2019-05-13T02:01:45.167Z,102726.00
2019-05-13T02:04:14.876Z,102726.00
2019-05-13T02:06:44.613Z,102729.00
2019-05-13T02:09:14.548Z,102737.00
2019-05-13T02:11:46.592Z,102732.00
2019-05-13T02:14:15.810Z,102733.00
2019-05-13T02:16:45.533Z,102733.00
2019-05-13T02:19:15.315Z,102735.00
2019-05-13T02:21:45.121Z,102733.00
2019-05-13T02:24:14.894Z,102732.00
2019-05-13T02:26:44.893Z,102737.00
2019-05-13T02:29:14.629Z,102745.00
2019-05-13T02:31:51.091Z,102748.00
2019-05-13T02:34:15.785Z,102746.00
2019-05-13T02:36:45.539Z,102746.00
2019-05-13T02:39:15.334Z,102750.00
2019-05-13T02:41:45.204Z,102760.00
2019-05-13T02:44:34.186Z,102753.00
2019-05-13T02:47:04.238Z,102748.00
2019-05-13T02:49:34.009Z,102759.00
2019-05-13T02:52:03.742Z,102747.00
2019-05-13T02:54:34.374Z,102759.00
2019-05-13T02:57:04.539Z,102752.00
2019-05-13T02:59:34.243Z,102749.00
2019-05-13T03:02:04.595Z,102752.00
2019-05-13T03:04:34.286Z,102749.00
2019-05-13T03:07:04.110Z,102762.00
2019-05-13T03:09:33.816Z,102753.00
2019-05-13T03:12:04.387Z,102761.00
2019-05-13T03:14:34.475Z,102762.00
2019-05-13T03:17:13.200Z,102752.00
2019-05-13T03:19:43.690Z,102759.00
2019-05-13T03:22:13.747Z,102762.00
2019-05-13T03:24:43.675Z,102768.00
2019-05-13T03:27:13.431Z,102762.00
2019-05-13T03:29:43.778Z,102766.00
2019-05-13T03:32:16.088Z,102759.00
2019-05-13T03:34:46.111Z,102759.00
2019-05-13T03:37:16.807Z,102765.00
2019-05-13T03:39:47.622Z,102760.00
2019-05-13T03:42:17.375Z,102764.00
2019-05-13T03:44:52.479Z,102764.00
2019-05-13T03:47:25.190Z,102759.00
2019-05-13T03:50:03.437Z,102775.00
2019-05-13T03:52:33.678Z,102770.00
2019-05-13T03:55:03.549Z,102777.00
2019-05-13T03:57:34.135Z,102762.00
2019-05-13T04:00:04.527Z,102775.00
2019-05-13T04:02:35.080Z,102781.00
2019-05-13T04:05:05.436Z,102780.00
2019-05-13T04:07:35.454Z,102782.00
2019-05-13T04:10:06.406Z,102783.00
2019-05-13T04:12:36.342Z,102788.00
2019-05-13T04:15:06.490Z,102784.00
2019-05-13T04:17:36.357Z,102781.00
2019-05-13T04:20:07.034Z,102795.00
2019-05-13T04:22:36.929Z,102791.00
2019-05-13T04:25:06.967Z,102794.00
2019-05-13T04:27:36.946Z,102795.00
2019-05-13T04:30:12.953Z,102791.00
2019-05-13T04:32:44.163Z,102806.00
2019-05-13T04:35:13.485Z,102802.00
2019-05-13T04:37:43.701Z,102820.00
2019-05-13T04:40:13.667Z,102818.00
2019-05-13T04:42:43.523Z,102823.00
2019-05-13T04:45:13.745Z,102818.00
2019-05-13T04:47:43.665Z,102826.00
2019-05-13T04:50:14.361Z,102831.00
2019-05-13T04:52:44.391Z,102826.00
2019-05-13T04:55:14.249Z,102828.00
2019-05-13T04:57:44.863Z,102833.00
2019-05-13T05:00:16.712Z,102831.00
2019-05-13T05:03:13.793Z,102840.00
2019-05-13T05:06:33.105Z,102839.00
2019-05-13T05:09:42.880Z,102838.00
2019-05-13T05:12:34.805Z,102834.00
2019-05-13T05:16:08.214Z,102838.00
2019-05-13T05:19:06.587Z,102839.00
2019-05-13T05:21:52.742Z,102851.00
2019-05-13T05:25:04.037Z,102837.00
2019-05-13T05:28:33.220Z,102839.00
2019-05-13T05:32:18.193Z,102841.00
2019-05-13T05:36:16.935Z,102859.00
2019-05-13T05:39:37.931Z,102859.00
2019-05-13T05:42:12.866Z,102859.00
2019-05-13T05:44:45.541Z,102853.00
2019-05-13T05:47:16.989Z,102855.00
2019-05-13T05:49:48.200Z,102851.00
2019-05-13T05:52:21.247Z,102857.00
2019-05-13T05:54:53.752Z,102849.00
2019-05-13T05:57:27.448Z,102859.00
2019-05-13T05:59:57.777Z,102865.00
2019-05-13T06:02:32.188Z,102869.00
2019-05-13T06:05:03.245Z,102863.00
2019-05-13T06:07:36.128Z,102863.00
2019-05-13T06:10:07.273Z,102862.00
2019-05-13T06:12:38.569Z,102864.00
2019-05-13T06:15:09.009Z,102865.00
2019-05-13T06:17:41.062Z,102875.00
2019-05-13T06:20:13.270Z,102869.00
2019-05-13T06:22:42.709Z,102872.00
2019-05-13T06:25:14.470Z,102875.00
2019-05-13T06:27:44.398Z,102873.00
2019-05-13T06:30:14.723Z,102874.00
2019-05-13T06:32:44.875Z,102876.00
2019-05-13T06:35:14.927Z,102871.00
2019-05-13T06:37:44.844Z,102875.00
2019-05-13T06:40:15.087Z,102887.00
2019-05-13T06:42:44.876Z,102885.00
2019-05-13T06:45:14.925Z,102877.00
2019-05-13T06:47:44.698Z,102882.00
2019-05-13T06:50:14.693Z,102878.00
2019-05-13T06:52:44.460Z,102878.00
2019-05-13T06:55:14.286Z,102876.00
2019-05-13T06:57:44.090Z,102872.00
2019-05-13T07:00:14.056Z,102885.00
2019-05-13T07:02:43.747Z,102881.00
2019-05-13T07:05:13.682Z,102877.00
2019-05-13T07:07:43.415Z,102872.00
2019-05-13T07:10:13.229Z,102862.00
2019-05-13T07:12:42.945Z,102872.00
2019-05-13T07:15:12.929Z,102873.00
2019-05-13T07:17:42.672Z,102868.00
2019-05-13T07:20:13.073Z,102877.00
2019-05-13T07:22:42.858Z,102873.00
2019-05-13T07:25:12.851Z,102876.00
2019-05-13T07:27:42.664Z,102878.00
2019-05-13T07:30:13.373Z,102873.00
2019-05-13T07:32:43.148Z,102873.00
2019-05-13T07:35:14.462Z,102876.00
2019-05-13T07:37:44.977Z,102870.00
2019-05-13T07:40:15.408Z,102869.00
2019-05-13T07:42:45.141Z,102870.00
2019-05-13T07:45:15.350Z,102865.00
2019-05-13T07:47:45.128Z,102867.00
2019-05-13T07:50:15.119Z,102776.00
2019-05-13T07:52:44.831Z,102867.00
2019-05-13T07:55:16.150Z,102867.00
2019-05-13T07:57:45.872Z,102859.00
2019-05-13T08:00:15.979Z,102857.00
2019-05-13T08:02:45.842Z,102859.00
2019-05-13T08:05:16.652Z,102863.00
2019-05-13T08:07:46.430Z,102871.00
2019-05-13T08:10:16.407Z,102864.00
2019-05-13T08:12:46.264Z,102866.00
2019-05-13T08:15:16.857Z,102858.00
2019-05-13T08:17:47.645Z,102872.00
2019-05-13T08:20:17.938Z,102869.00
2019-05-13T08:22:47.671Z,102865.00
2019-05-13T08:25:17.777Z,102867.00
2019-05-13T08:27:47.477Z,102861.00
2019-05-13T08:30:18.453Z,102852.00
2019-05-13T08:32:48.600Z,102863.00
2019-05-13T08:35:18.450Z,102868.00
2019-05-13T08:37:48.205Z,102867.00
2019-05-13T08:40:20.424Z,102858.00
2019-05-13T08:42:51.982Z,102856.00
2019-05-13T08:45:22.391Z,102854.00
2019-05-13T08:47:52.405Z,102858.00
2019-05-13T08:50:23.177Z,102853.00
2019-05-13T08:52:56.293Z,102838.00
2019-05-13T08:55:25.977Z,102851.00
2019-05-13T08:57:55.807Z,102866.00
2019-05-13T09:00:53.929Z,102853.00
2019-05-13T09:03:24.806Z,102846.00
2019-05-13T09:05:55.284Z,102794.00
2019-05-13T09:08:26.395Z,102848.00
2019-05-13T09:10:57.081Z,102859.00
2019-05-13T09:13:27.236Z,102853.00
2019-05-13T09:15:57.008Z,102860.00
2019-05-13T09:18:26.715Z,102859.00
2019-05-13T09:20:56.443Z,102849.00
2019-05-13T09:23:26.217Z,102857.00
2019-05-13T09:25:56.210Z,102857.00
2019-05-13T09:28:25.985Z,102858.00
2019-05-13T09:30:55.820Z,102852.00
2019-05-13T09:33:25.625Z,102847.00
2019-05-13T09:35:55.382Z,102860.00
2019-05-13T09:38:25.156Z,102855.00
2019-05-13T09:40:54.917Z,102856.00
2019-05-13T09:43:24.625Z,102853.00
2019-05-13T09:45:54.422Z,102851.00
2019-05-13T09:48:24.160Z,102850.00
2019-05-13T09:50:53.975Z,102856.00
2019-05-13T09:53:23.856Z,102858.00
2019-05-13T09:55:53.638Z,102854.00
2019-05-13T09:58:23.407Z,102857.00
2019-05-13T10:00:53.429Z,102868.00
2019-05-13T10:03:29.188Z,102851.00
2019-05-13T10:05:54.931Z,102853.00
2019-05-13T10:08:25.088Z,102853.00
2019-05-13T10:10:54.800Z,102858.00
2019-05-13T10:13:24.504Z,102854.00
2019-05-13T10:15:54.214Z,102860.00
2019-05-13T10:18:24.214Z,102855.00
2019-05-13T10:20:58.915Z,102845.00
2019-05-13T10:23:32.518Z,102855.00
2019-05-13T10:26:05.459Z,102855.00
2019-05-13T10:28:36.009Z,102860.00
2019-05-13T10:31:06.349Z,102859.00
2019-05-13T10:33:36.282Z,102865.00
2019-05-13T10:36:06.354Z,102854.00
2019-05-13T10:38:36.163Z,102869.00
2019-05-13T10:41:06.138Z,102854.00
2019-05-13T10:43:40.211Z,102856.00
2019-05-13T10:46:07.423Z,102870.00
2019-05-13T10:48:37.300Z,102861.00
2019-05-13T10:51:07.065Z,102853.00
2019-05-13T10:53:36.924Z,102855.00
2019-05-13T10:56:06.988Z,102852.00
2019-05-13T10:58:36.777Z,102861.00
2019-05-13T11:01:06.607Z,102897.00
2019-05-13T11:03:36.768Z,102885.00
2019-05-13T11:06:06.762Z,102881.00
2019-05-13T11:08:36.522Z,102875.00
2019-05-13T11:11:06.305Z,102877.00
2019-05-13T11:13:54.081Z,102863.00
2019-05-13T11:16:07.674Z,102867.00
2019-05-13T11:18:37.437Z,102865.00
2019-05-13T11:21:07.472Z,102868.00
2019-05-13T11:23:37.320Z,102867.00
2019-05-13T11:26:07.175Z,102864.00
2019-05-13T11:28:37.252Z,102868.00
2019-05-13T11:31:07.034Z,102854.00
2019-05-13T11:33:36.852Z,102862.00
2019-05-13T11:36:06.718Z,102876.00
2019-05-13T11:38:36.545Z,102870.00
2019-05-13T11:41:06.298Z,102866.00
2019-05-13T11:43:36.062Z,102859.00
2019-05-13T11:46:05.936Z,102850.00
2019-05-13T11:48:35.664Z,102842.00
2019-05-13T11:51:05.779Z,102857.00
2019-05-13T11:53:37.631Z,102856.00
2019-05-13T11:56:06.916Z,102855.00
2019-05-13T11:58:36.670Z,102846.00
2019-05-13T12:01:25.689Z,102845.00
2019-05-13T12:03:55.372Z,102854.00
2019-05-13T12:06:25.187Z,102839.00
2019-05-13T12:08:55.547Z,102840.00
2019-05-13T12:11:25.360Z,102834.00
2019-05-13T12:13:55.087Z,102834.00
2019-05-13T12:16:25.190Z,102840.00
2019-05-13T12:18:54.918Z,102823.00
2019-05-13T12:21:24.735Z,102832.00
2019-05-13T12:23:54.688Z,102831.00
2019-05-13T12:26:24.543Z,102804.00
2019-05-13T12:28:54.528Z,102829.00
2019-05-13T12:31:24.325Z,102831.00
2019-05-13T12:33:54.387Z,102829.00
2019-05-13T12:36:24.539Z,102835.00
2019-05-13T12:38:54.759Z,102824.00
2019-05-13T12:41:24.467Z,102814.00
2019-05-13T12:43:54.349Z,102811.00
2019-05-13T12:46:25.056Z,102837.00
2019-05-13T12:48:55.017Z,102812.00
2019-05-13T12:51:24.785Z,102794.00
2019-05-13T12:53:54.476Z,102819.00
2019-05-13T12:56:24.252Z,102821.00
2019-05-13T12:58:53.981Z,102823.00
2019-05-13T13:01:24.142Z,102797.00
2019-05-13T13:03:53.958Z,102810.00
2019-05-13T13:06:32.126Z,102807.00
2019-05-13T13:09:14.532Z,102804.00
2019-05-13T13:11:44.296Z,102797.00
2019-05-13T13:14:15.474Z,102792.00
2019-05-13T13:16:45.543Z,102806.00
2019-05-13T13:19:15.338Z,102799.00
2019-05-13T13:21:45.511Z,102796.00
2019-05-13T13:24:15.450Z,102794.00
2019-05-13T13:26:45.276Z,102782.00
2019-05-13T13:29:14.986Z,102769.00
2019-05-13T13:31:44.715Z,102768.00
2019-05-13T13:34:18.667Z,102765.00
2019-05-13T13:36:46.671Z,102774.00
2019-05-13T13:39:16.480Z,102796.00
2019-05-13T13:41:46.500Z,102791.00
2019-05-13T13:44:16.507Z,102789.00
2019-05-13T13:46:49.524Z,102783.00
2019-05-13T13:49:17.651Z,102789.00
2019-05-13T13:51:47.418Z,102777.00
2019-05-13T13:54:17.311Z,102770.00
2019-05-13T13:56:47.192Z,102786.00
2019-05-13T13:59:17.216Z,102789.00
2019-05-13T14:01:46.937Z,102782.00
2019-05-13T14:04:16.798Z,102790.00
2019-05-13T14:09:22.169Z,102787.00
2019-05-13T14:11:51.580Z,102788.00
2019-05-13T14:14:21.689Z,102783.00
2019-05-13T14:16:51.992Z,102776.00
2019-05-13T14:19:21.986Z,102776.00
2019-05-13T14:21:52.617Z,102779.00
2019-05-13T14:24:22.423Z,102780.00
2019-05-13T14:26:52.735Z,102773.00
2019-05-13T14:29:37.659Z,102771.00
2019-05-13T14:31:54.957Z,102768.00
2019-05-13T14:34:24.776Z,102775.00
2019-05-13T14:36:54.556Z,102764.00
2019-05-13T14:39:24.733Z,102761.00
2019-05-13T14:41:54.499Z,102760.00
2019-05-13T14:44:24.403Z,102742.00
2019-05-13T14:49:42.956Z,102760.00
2019-05-13T14:52:12.714Z,102761.00
2019-05-13T14:54:42.498Z,102756.00
2019-05-13T14:57:15.024Z,102757.00
2019-05-13T14:59:44.265Z,102759.00
2019-05-13T15:02:14.013Z,102714.00
2019-05-13T15:04:43.724Z,102722.00
2019-05-13T15:07:13.768Z,102729.00
2019-05-13T15:09:43.440Z,102732.00
2019-05-13T15:12:13.450Z,102741.00
2019-05-13T15:14:43.213Z,102736.00
2019-05-13T15:17:13.134Z,102753.00
2019-05-13T15:19:42.814Z,102742.00
2019-05-13T15:22:15.878Z,102759.00
2019-05-13T15:24:46.066Z,102756.00
2019-05-13T15:27:35.028Z,102745.00
2019-05-13T15:30:16.824Z,102747.00
2019-05-13T15:32:37.279Z,102749.00
2019-05-13T15:35:10.048Z,102737.00
2019-05-13T15:37:41.212Z,102752.00
2019-05-13T15:40:11.790Z,102741.00
2019-05-13T15:42:41.536Z,102735.00
2019-05-13T15:45:12.497Z,102722.00
2019-05-13T15:47:42.425Z,102727.00
2019-05-13T15:50:12.631Z,102721.00
2019-05-13T15:52:43.448Z,102722.00
2019-05-13T15:55:13.480Z,102721.00
2019-05-13T15:57:43.477Z,102714.00
2019-05-13T16:00:13.849Z,102717.00
2019-05-13T16:02:43.604Z,102725.00
2019-05-13T16:05:13.659Z,102717.00
2019-05-13T16:07:43.557Z,102717.00
2019-05-13T16:10:13.624Z,102717.00
2019-05-13T16:12:43.392Z,102685.00
2019-05-13T16:15:15.794Z,102688.00
2019-05-13T16:17:45.754Z,102684.00
2019-05-13T16:20:16.443Z,102688.00
2019-05-13T16:22:46.230Z,102687.00
2019-05-13T16:25:16.441Z,102686.00
2019-05-13T16:27:46.389Z,102720.00
2019-05-13T16:30:16.784Z,102718.00
2019-05-13T16:32:48.311Z,102722.00
2019-05-13T16:35:18.300Z,102728.00
2019-05-13T16:37:48.459Z,102726.00
2019-05-13T16:40:18.878Z,102730.00
2019-05-13T16:42:51.759Z,102735.00
2019-05-13T16:45:21.823Z,102739.00
2019-05-13T16:47:57.970Z,102733.00
2019-05-13T16:50:25.068Z,102740.00
2019-05-13T16:52:54.804Z,102746.00
2019-05-13T16:55:24.683Z,102743.00
2019-05-13T16:57:54.426Z,102743.00
2019-05-13T17:00:24.770Z,102740.00
2019-05-13T17:02:54.567Z,102738.00
2019-05-13T17:05:24.474Z,102735.00
2019-05-13T17:07:54.409Z,102742.00
2019-05-13T17:10:24.146Z,102741.00
2019-05-13T17:12:53.897Z,102742.00
2019-05-13T17:15:26.410Z,102746.00
2019-05-13T17:18:08.410Z,102731.00
2019-05-13T17:20:27.556Z,102733.00
2019-05-13T17:22:57.385Z,102749.00
2019-05-13T17:25:27.241Z,102737.00
2019-05-13T17:27:56.936Z,102742.00
2019-05-13T17:30:26.661Z,102748.00
2019-05-13T17:32:56.472Z,102741.00
2019-05-13T17:35:26.173Z,102742.00
2019-05-13T17:37:55.925Z,102742.00
2019-05-13T17:40:25.786Z,102750.00
2019-05-13T17:42:55.483Z,102747.00
2019-05-13T17:45:25.239Z,102745.00
2019-05-13T17:47:55.048Z,102741.00
2019-05-13T17:50:24.838Z,102748.00
2019-05-13T17:52:54.541Z,102746.00
2019-05-13T17:55:24.587Z,102738.00
2019-05-13T17:57:54.423Z,102738.00
2019-05-13T18:00:24.542Z,102743.00
2019-05-13T18:02:54.288Z,102749.00
2019-05-13T18:05:24.058Z,102750.00
2019-05-13T18:07:53.826Z,102754.00
2019-05-13T18:10:23.661Z,102749.00
2019-05-13T18:12:53.437Z,102757.00
2019-05-13T18:15:23.240Z,102752.00
2019-05-13T18:17:53.114Z,102749.00
2019-05-13T18:20:22.871Z,102758.00
2019-05-13T18:22:52.563Z,102719.00
2019-05-13T18:25:22.482Z,102728.00
2019-05-13T18:27:52.309Z,102750.00
2019-05-13T18:30:22.311Z,102752.00
2019-05-13T18:32:52.024Z,102748.00
2019-05-13T18:35:41.821Z,102751.00
2019-05-13T18:38:12.090Z,102757.00
2019-05-13T18:40:42.141Z,102755.00
2019-05-13T18:43:12.246Z,102755.00
2019-05-13T18:45:42.057Z,102754.00
2019-05-13T18:48:12.376Z,102759.00
2019-05-13T18:50:42.121Z,102764.00
2019-05-13T18:53:13.186Z,102774.00
2019-05-13T18:55:42.942Z,102780.00
2019-05-13T18:58:12.695Z,102781.00
2019-05-13T19:00:42.522Z,102786.00
2019-05-13T19:03:13.329Z,102792.00
2019-05-13T19:05:43.125Z,102788.00
2019-05-13T19:08:12.821Z,102794.00
2019-05-13T19:10:42.591Z,102792.00
2019-05-13T19:13:12.564Z,102788.00
2019-05-13T19:15:42.366Z,102792.00
2019-05-13T19:18:12.382Z,102784.00
2019-05-13T19:20:42.270Z,102785.00
2019-05-13T19:23:14.369Z,102783.00
2019-05-13T19:25:43.429Z,102781.00
2019-05-13T19:28:13.140Z,102782.00
2019-05-13T19:30:42.870Z,102784.00
2019-05-13T19:33:12.687Z,102797.00
2019-05-13T19:35:42.727Z,102792.00
2019-05-13T19:38:12.691Z,102796.00
2019-05-13T19:40:42.528Z,102795.00
2019-05-13T19:43:12.244Z,102802.00
2019-05-13T19:45:42.096Z,102787.00
2019-05-13T19:48:12.112Z,102789.00
2019-05-13T19:50:41.875Z,102785.00
2019-05-13T19:53:12.250Z,102789.00
2019-05-13T19:55:42.090Z,102804.00
2019-05-13T19:58:12.512Z,102792.00
2019-05-13T20:00:42.632Z,102790.00
2019-05-13T20:03:12.722Z,102780.00
2019-05-13T20:05:42.478Z,102795.00
2019-05-13T20:08:12.312Z,102787.00
2019-05-13T20:10:42.378Z,102785.00
2019-05-13T20:13:12.210Z,102800.00
2019-05-13T20:15:41.943Z,102792.00
2019-05-13T20:18:12.247Z,102796.00
2019-05-13T20:20:42.171Z,102793.00
2019-05-13T20:23:13.234Z,102793.00
2019-05-13T20:25:42.871Z,102798.00
2019-05-13T20:28:12.659Z,102797.00
2019-05-13T20:30:45.405Z,102803.00
2019-05-13T20:33:13.766Z,102798.00
2019-05-13T20:35:43.482Z,102800.00
2019-05-13T20:38:13.173Z,102800.00
2019-05-13T20:40:42.909Z,102802.00
2019-05-13T20:43:12.629Z,102799.00
2019-05-13T20:46:02.202Z,102795.00
2019-05-13T20:48:32.230Z,102793.00
2019-05-13T20:51:02.703Z,102798.00
2019-05-13T20:53:32.611Z,102801.00
2019-05-13T20:56:02.364Z,102800.00
2019-05-13T20:58:32.148Z,102801.00
2019-05-13T21:01:02.497Z,102797.00
2019-05-13T21:03:32.424Z,102794.00
2019-05-13T21:06:02.503Z,102798.00
2019-05-13T21:08:32.363Z,102796.00
2019-05-13T21:11:02.468Z,102791.00
2019-05-13T21:13:32.488Z,102786.00
2019-05-13T21:16:02.554Z,102789.00
2019-05-13T21:18:32.380Z,102793.00
2019-05-13T21:21:02.083Z,102795.00
2019-05-13T21:23:31.846Z,102785.00
2019-05-13T21:26:01.880Z,102781.00
2019-05-13T21:28:31.639Z,102784.00
2019-05-13T21:31:02.307Z,102785.00
2019-05-13T21:33:32.077Z,102786.00
2019-05-13T21:36:02.009Z,102784.00
2019-05-13T21:38:32.459Z,102788.00
2019-05-13T21:41:02.353Z,102785.00
2019-05-13T21:43:32.542Z,102783.00
2019-05-13T21:46:02.456Z,102786.00
2019-05-13T21:48:32.727Z,102778.00
2019-05-13T21:51:02.630Z,102778.00
2019-05-13T21:53:32.814Z,102786.00
2019-05-13T21:56:02.672Z,102785.00
2019-05-13T21:58:32.464Z,102782.00
2019-05-13T22:01:03.399Z,102780.00
2019-05-13T22:03:33.641Z,102773.00
2019-05-13T22:06:03.519Z,102767.00
2019-05-13T22:08:33.318Z,102777.00
2019-05-13T22:11:03.073Z,102776.00
2019-05-13T22:13:33.095Z,102775.00
2019-05-13T22:16:02.893Z,102779.00
2019-05-13T22:18:32.733Z,102763.00
2019-05-13T22:21:03.096Z,102774.00
2019-05-13T22:23:32.849Z,102778.00
2019-05-13T22:26:02.592Z,102774.00
2019-05-13T22:28:32.345Z,102777.00
2019-05-13T22:31:02.095Z,102769.00
2019-05-13T22:33:32.543Z,102772.00
2019-05-13T22:36:02.322Z,102771.00
2019-05-13T22:38:32.567Z,102779.00
2019-05-13T22:41:02.310Z,102774.00
2019-05-13T22:43:32.349Z,102777.00
2019-05-13T22:46:02.121Z,102768.00
2019-05-13T22:48:31.975Z,102773.00
2019-05-13T22:51:01.729Z,102765.00
2019-05-13T22:53:32.056Z,102769.00
2019-05-13T22:56:01.812Z,102771.00
2019-05-13T22:58:32.194Z,102769.00
2019-05-13T23:01:02.646Z,102763.00
2019-05-13T23:03:33.110Z,102767.00
2019-05-13T23:06:02.907Z,102770.00
2019-05-13T23:08:32.652Z,102770.00
2019-05-13T23:11:02.398Z,102771.00
2019-05-13T23:13:32.118Z,102761.00
2019-05-13T23:16:02.500Z,102756.00
2019-05-13T23:18:32.372Z,102752.00
2019-05-13T23:21:02.509Z,102757.00
2019-05-13T23:23:32.264Z,102760.00
2019-05-13T23:26:01.963Z,102766.00
2019-05-13T23:28:32.247Z,102755.00
2019-05-13T23:31:02.094Z,102753.00
2019-05-13T23:33:31.821Z,102755.00
2019-05-13T23:36:01.759Z,102754.00
2019-05-13T23:38:32.087Z,102757.00
2019-05-13T23:41:02.229Z,102752.00
2019-05-13T23:43:31.988Z,102754.00
2019-05-13T23:46:01.731Z,102756.00
2019-05-13T23:48:32.050Z,102756.00
2019-05-13T23:51:02.033Z,102761.00
2019-05-13T23:53:52.495Z,102751.00
2019-05-13T23:56:22.270Z,102756.00
2019-05-13T23:58:52.099Z,102750.00
